logo
App data

Keen Dreams

Long heralded as the "lost episode" of classic platformer Commander Keen, Keen Dreams sees Billy Blaze confront his greatest nightmare: the vegetables he didn't eat for dinner. This classic DOS game has been updated to run on modern systems, with new Steam achievements and leaderboards.
Store | Hub | SteamDB | Site
Developer: id Software, David Gow, Nightdive Studios, Hard Disk Publishing Publisher: Nightdive Studios, Hard Disk Publishing
Genre: Action, Casual, Indie
Languages: English
Tags: Casual (30), Indie (26), Action (26), Platformer (13), Classic (9), Retro (5)
Category: Single-player, Steam Achievements, Steam Trading Cards, Partial Controller Support, Steam Cloud, Steam Leaderboards
Release date: Sep 28, 2015
Price: $0.99 80%
Score rank: 97% Userscore: 79% Old userscore: 77%
Owners: 50,000 .. 100,000
Followers: 634
Peak concurrent players yesterday: 1
Playtime total: 05:47 (average) 06:32 (median)

Steam Spy is still in beta, so expect major bugs.

Owners data:

Access restricted.

This feature is only available to users with special access rights. Sorry.

If you want to proceed, you need to register or log in first and then back Steam Spy on Patreon. Look for Indie or Pro pledge.

Don't forget to use the same email as on Steam Spy!

Audience in 2 weeks:

Access restricted.

This feature is only available to users with special access rights. Sorry.

If you want to proceed, you need to register or log in first and then back Steam Spy on Patreon. Look for Indie or Pro pledge.

Don't forget to use the same email as on Steam Spy!

Peak daily concurrent players:

CCU data courtesy of SteamDB. Used with permission.

Hourly concurrent players:

YouTube:

The views data is based on top 50 videos uploaded last week. Actual number of views might be more than the number shown.

The displayed number of videos uploaded yesterday is limited to 50, so if there were more videos uploaded, the number will still show 50.

If the game has commonly used word as its name (like "FEAR" or "Volume") its number of Youtube views might be wrong.

Games similar to this one:

# Game Release date
Price
Score rank
(Userscore / Metascore)
Owners
Players
Playtime (Median)
1 Job the Leprechaun Jul 31, 2015 $1.01N/A (N/A)20,000 .. 50,0000%00:00 (00:00)
2 Death Goat Jun 7, 2016 $2.99N/A (N/A)20,000 .. 50,0000%00:00 (00:00)
3 Sweezy Gunner May 6, 2014 $3.99N/A (N/A)20,000 .. 50,0000%00:00 (00:00)
4 Darkarta: A Broken Heart's Quest Collector's Edition Mar 8, 2017 $9.99N/A (N/A)50,000 .. 100,0000%00:00 (00:00)
5 DOGOS Sep 6, 2016 $11.99N/A (N/A)20,000 .. 50,0000%00:00 (00:00)
6 Burst Mar 14, 2016 $1.99N/A (N/A)50,000 .. 100,0000%00:00 (00:00)
7 Lift It Jan 20, 2017 $4.99N/A (N/A)50,000 .. 100,0000%00:00 (00:00)
8 Thumper Oct 10, 2016 $19.99N/A (N/A/85%)100,000 .. 200,0000%00:00 (00:00)
9 Supraball Feb 8, 2019 FreeN/A (N/A)200,000 .. 500,0002.86%00:06 (00:02)
10 Particulars Nov 19, 2014 $5.99N/A (N/A/74%)20,000 .. 50,0000%00:00 (00:00)
11 Machine Hunt May 15, 2017 $0.5N/A (N/A)50,000 .. 100,0000%00:00 (00:00)
12 The Dolls: Reborn May 25, 2016 $4.99N/A (N/A)50,000 .. 100,0000%00:00 (00:00)
13 Surfingers Jan 27, 2016 $1.99N/A (N/A)50,000 .. 100,0000%00:00 (00:00)
14 Alpha Runner Sep 2, 2015 $0.99N/A (N/A)100,000 .. 200,0000%00:00 (00:00)
15 Unhack Jan 9, 2015 $3.99N/A (N/A)20,000 .. 50,0000%00:00 (00:00)
16 Swipecart May 8, 2014 $2.99N/A (N/A)100,000 .. 200,0000%00:00 (00:00)
17 The guard of dungeon Mar 7, 2017 $0.69N/A (N/A)0 .. 20,0000%00:00 (00:00)
18 Strategy & Tactics: Dark Ages Aug 4, 2017 $14.99N/A (N/A)20,000 .. 50,0000%00:00 (00:00)
19 Forgotten, Not Lost - A Kinetic Novel Apr 1, 2016 $1.99N/A (N/A)50,000 .. 100,0000%00:00 (00:00)
20 Pro Gamer Manager Apr 28, 2016 $9.99N/A (N/A)20,000 .. 50,0000%00:00 (00:00)
21 Lakeview Cabin Collection Apr 9, 2015 $9.99N/A (N/A/70%)100,000 .. 200,0000%00:00 (00:00)
22 Sinister City Oct 20, 2014 $0.99N/A (N/A)100,000 .. 200,0000%00:00 (00:00)
23 Girls Like Robots Feb 14, 2014 $6.99N/A (N/A)100,000 .. 200,0000%00:00 (00:00)
24 Last Answer Jan 10, 2017 $4.99N/A (N/A)100,000 .. 200,0000%00:00 (00:00)
25 Magma Tsunami Jun 1, 2016 $0.99N/A (N/A)100,000 .. 200,0000%00:00 (00:00)
26 Until I Have You Apr 4, 2016 $13.99N/A (N/A)0 .. 20,0000%00:00 (00:00)
27 The Tape Nov 19, 2015 $0.99N/A (N/A)100,000 .. 200,0000%00:00 (00:00)
28 12 Labours of Hercules Mar 23, 2015 $2.99N/A (N/A)100,000 .. 200,0008.33%01:54 (00:38)
29 Spy Chameleon - RGB Agent Jun 11, 2014 $4.99N/A (N/A)20,000 .. 50,0000%00:00 (00:00)
30 My Name is You Apr 17, 2017 $0.51N/A (N/A)100,000 .. 200,0000%00:00 (00:00)
31 Project Lounge Nov 3, 2016 $5.99N/A (N/A)0 .. 20,0000%00:00 (00:00)
32 A-Gents Apr 20, 2016 $4.99N/A (N/A)20,000 .. 50,0000%00:00 (00:00)
33 Mines of Mars Sep 10, 2018 $6.99N/A (N/A)0 .. 20,0000%00:00 (00:00)
34 Red Goblin: Cursed Forest May 15, 2015 $4.99N/A (N/A)20,000 .. 50,0000%00:00 (00:00)
35 Letter Quest: Grimm's Journey Nov 20, 2014 N/AN/A (N/A/73%)50,000 .. 100,0000%00:00 (00:00)
36 Farm for your Life Jun 5, 2013 $9.99N/A (N/A)50,000 .. 100,0000%00:00 (00:00)
37 Golf It! Feb 17, 2017 $8.99N/A (N/A)200,000 .. 500,0000%00:00 (00:00)
38 Totally Unbalanced Jul 29, 2016 $2.99N/A (N/A)0 .. 20,0000%00:00 (00:00)
39 Abandoned Knight Apr 27, 2016 $0.51N/A (N/A)200,000 .. 500,0000%00:00 (00:00)
40 In Between Aug 21, 2015 $11.99N/A (N/A/68%)50,000 .. 100,0000%00:00 (00:00)
41 Crash Drive 2 May 28, 2015 $4.99N/A (N/A)50,000 .. 100,0000%00:00 (00:00)
42 Cute Things Dying Violently Sep 2, 2015 $2.99N/A (N/A)0 .. 20,0000%00:00 (00:00)
43 UltraGoodness Jun 2, 2017 $2.03N/A (N/A)100,000 .. 200,0000%00:00 (00:00)
44 Farm Life: Natures Adventure Aug 23, 2016 $0.99N/A (N/A)50,000 .. 100,00020%05:01 (01:40)
45 Zenge Apr 12, 2016 $0.99N/A (N/A)100,000 .. 200,0000%00:00 (00:00)
46 Shooting Stars! Jan 19, 2016 $0.49N/A (N/A/59%)50,000 .. 100,0000%00:00 (00:00)
47 Beat Da Beat Mar 10, 2016 $1.99N/A (N/A)0 .. 20,0000%00:00 (00:00)
48 National Zombie Park Dec 15, 2014 $0.99N/A (N/A)100,000 .. 200,0000%00:00 (00:00)
49 Tribloos 2 Jan 12, 2013 $4.99N/A (N/A)100,000 .. 200,0000%00:00 (00:00)
50 Hardnoid Feb 17, 2017 $0.99N/A (N/A)50,000 .. 100,0000%00:00 (00:00)
51 ConflictCraft Dec 8, 2016 $2.99N/A (N/A)20,000 .. 50,0000%00:00 (00:00)
52 Sophie's Curse Mar 16, 2016 $4.99N/A (N/A)50,000 .. 100,0000%00:00 (00:00)
53 Robot vs Birds Zombies Jul 23, 2015 $0.99N/A (N/A)0 .. 20,0000%00:00 (00:00)
54 Pixel Puzzles 2: Birds Feb 20, 2015 $9.99N/A (N/A)200,000 .. 500,0000%00:00 (00:00)
55 Borealis Sep 2, 2014 $4.99N/A (N/A)50,000 .. 100,0000%00:00 (00:00)
56 Blocks That Matter Aug 19, 2011 $4.99N/A (N/A/72%)200,000 .. 500,0000%00:00 (00:00)
57 CrossCells May 26, 2017 $2.99N/A (N/A)20,000 .. 50,0000%00:00 (00:00)
58 Carrie's Order Up! Sep 12, 2016 $2.99N/A (N/A)0 .. 20,0000%00:00 (00:00)
59 Hyposphere May 5, 2016 $2.99N/A (N/A)200,000 .. 500,0000%00:00 (00:00)
60 Rescue Team 5 Nov 18, 2015 $3.99N/A (N/A)20,000 .. 50,0000%00:00 (00:00)
61 Gem Wars: Attack of the Jiblets Dec 14, 2015 FreeN/A (N/A)20,000 .. 50,0000%00:00 (00:00)
62 Square Heroes Apr 9, 2015 $4.99N/A (N/A)20,000 .. 50,0000%00:00 (00:00)
63 Super Killer Hornet: Resurrection Feb 5, 2014 $4.99N/A (N/A)200,000 .. 500,0000%00:00 (00:00)
64 Hell`s Little Story Feb 9, 2017 $0.5N/A (N/A)100,000 .. 200,0000%00:00 (00:00)
65 klocki Jul 13, 2016 $0.99N/A (N/A)100,000 .. 200,0000%00:00 (00:00)
66 Cat on a Diet Feb 29, 2016 $4.99N/A (N/A)100,000 .. 200,0000%00:00 (00:00)
67 Labyrinth Simulator Sep 21, 2015 $4.99N/A (N/A)0 .. 20,0000%00:00 (00:00)
68 Astro Emporia Feb 2, 2015 $0.99N/A (N/A)20,000 .. 50,0000%00:00 (00:00)
69 REVOLVER360 RE:ACTOR Oct 24, 2014 $9.99N/A (N/A)50,000 .. 100,0000%00:00 (00:00)
70 Galactic Arms Race May 31, 2014 $2.99N/A (N/A)50,000 .. 100,0000%00:00 (00:00)
71 8infinity Sep 23, 2016 $0.99N/A (N/A)20,000 .. 50,0000%00:00 (00:00)
72 Caveman World: Mountains of Unga Boonga Apr 26, 2016 $1.99N/A (N/A)100,000 .. 200,00011.11%00:03 (00:01)
73 SquareCells Dec 7, 2015 $2.99N/A (N/A)20,000 .. 50,0000%00:00 (00:00)
74 Gunnheim Oct 16, 2015 $9.99N/A (N/A)100,000 .. 200,0000%00:00 (00:00)
75 Marble Duel Nov 12, 2015 $4.99N/A (N/A)50,000 .. 100,0000%00:00 (00:00)
76 About Love, Hate and the other ones Dec 12, 2014 $1.74N/A (N/A)50,000 .. 100,0000%00:00 (00:00)
77 Ultimate Russian Zombie Rush Feb 10, 2017 $0.51N/A (N/A)20,000 .. 50,0000%00:00 (00:00)
78 Clock Simulator Jul 20, 2016 $0.99N/A (N/A)20,000 .. 50,0000%00:00 (00:00)
79 A grande bagunça espacial - The big space mess Apr 5, 2016 $0.99N/A (N/A)200,000 .. 500,0000%00:00 (00:00)
80 Tennis in the Face Nov 18, 2015 $4.99N/A (N/A)0 .. 20,0000%00:00 (00:00)
81 Streets of Chaos Jan 28, 2015 N/AN/A (N/A)100,000 .. 200,0000%00:00 (00:00)
82 Quantum Rush Champions Dec 4, 2014 $2.99N/A (N/A)20,000 .. 50,0000%00:00 (00:00)
83 Divide By Sheep Jul 2, 2015 $4.99N/A (N/A/83%)100,000 .. 200,0000%00:00 (00:00)
84 EM: Shader Attack Sep 29, 2016 $0.51N/A (N/A)100,000 .. 200,0000%00:00 (00:00)
85 Prehistoric Tales May 26, 2016 $2.99N/A (N/A)0 .. 20,0000%00:00 (00:00)
86 Goodnight Butcher Dec 18, 2015 $1.99N/A (N/A)20,000 .. 50,0000%00:00 (00:00)
87 Fate Tectonics Sep 9, 2015 $9.99N/A (N/A)0 .. 20,0000%00:00 (00:00)
88 Trouble In The Manor Nov 17, 2015 $0.99N/A (N/A)200,000 .. 500,0000%00:00 (00:00)
89 On Rusty Trails Jun 13, 2016 $3.24N/A (N/A/77%)20,000 .. 50,0000%00:00 (00:00)
90 Blood Harvest Feb 7, 2017 $2.99N/A (N/A)20,000 .. 50,0000%00:00 (00:00)
91 50 years May 26, 2017 $4.99N/A (N/A)20,000 .. 50,0000%00:00 (00:00)
92 Hustle Cat Mar 16, 2016 $19.99N/A (N/A)20,000 .. 50,0000%00:00 (00:00)
93 12 Labours of Hercules IV: Mother Nature (Platinum Edition) Dec 25, 2015 $2.99N/A (N/A)20,000 .. 50,00016.67%01:40 (00:50)
94 Avalanche 2: Super Avalanche Jun 11, 2015 $4.99N/A (N/A)50,000 .. 100,0000%00:00 (00:00)
95 Enforcer: Police Crime Action Oct 24, 2014 $19.99N/A (N/A)100,000 .. 200,0000%00:00 (00:00)
96 Scania Truck Driving Simulator Jun 12, 2012 $9.99N/A (N/A)500,000 .. 1,000,0000%00:00 (00:00)
97 Luke Sidewalker Dec 5, 2016 $0.99N/A (N/A)50,000 .. 100,0000%00:00 (00:00)
98 Approaching Blocks Jun 3, 2016 $1.99N/A (N/A)100,000 .. 200,0000%00:00 (00:00)
99 White Mirror Jan 26, 2016 $4.99N/A (N/A)200,000 .. 500,0000%00:00 (00:00)
100 Weapons Genius Jul 8, 2015 $6.99N/A (N/A)100,000 .. 200,0000%00:00 (00:00)
101 Cubot Jan 8, 2015 $1.99N/A (N/A)20,000 .. 50,0000%00:00 (00:00)
102 Wildlife Park 3 May 12, 2014 $9.99N/A (N/A)50,000 .. 100,0000%00:00 (00:00)
103 Red Death Mar 23, 2017 $0.99N/A (N/A)200,000 .. 500,0000%00:00 (00:00)
104 Optika Aug 26, 2016 $4.99N/A (N/A)20,000 .. 50,0000%00:00 (00:00)
105 Blueprint Tycoon May 13, 2016 $1.01N/A (N/A)50,000 .. 100,0000%00:00 (00:00)
106 Game Corp DX Oct 2, 2015 $0.74N/A (N/A)100,000 .. 200,0000%00:00 (00:00)
107 Pester Jan 25, 2013 $0.99N/A (N/A)100,000 .. 200,0000%00:00 (00:00)
108 Cosmonautica Jul 31, 2015 $9.99N/A (N/A)100,000 .. 200,0000%00:00 (00:00)
109 Type:Rider Nov 6, 2013 $4.99N/A (N/A)100,000 .. 200,0000%00:00 (00:00)
110 Dynamic Very, Very, Hard game!! Nov 11, 2016 $3.99N/A (N/A)100,000 .. 200,0000%00:00 (00:00)
111 Autumn May 14, 2016 $2.99N/A (N/A)100,000 .. 200,0000%00:00 (00:00)
112 Moonlight Feb 5, 2016 $1.99N/A (N/A)0 .. 20,0000%00:00 (00:00)

Tags over time:

Access restricted.

This feature is only available to users with special access rights. Sorry.

If you want to proceed, you need to register or log in first and then back Steam Spy on Patreon. Look for Indie or Pro pledge.

Don't forget to use the same email as on Steam Spy!

Owners of this game also own:

Access restricted.

This feature is only available to users with special access rights. Sorry.

If you want to proceed, you need to register or log in first and then back Steam Spy on Patreon. Look for Indie or Pro pledge.

Don't forget to use the same email as on Steam Spy!

Playtime distribution:

Access restricted.

This feature is only available to users with special access rights. Sorry.

If you want to proceed, you need to register or log in first and then back Steam Spy on Patreon. Look for Indie or Pro pledge.

Don't forget to use the same email as on Steam Spy!

Playtime (2 weeks):

Access restricted.

This feature is only available to users with special access rights. Sorry.

If you want to proceed, you need to register or log in first and then back Steam Spy on Patreon. Look for Indie or Pro pledge.

Don't forget to use the same email as on Steam Spy!

User reviews:

Login required.

Please register or log in to see this information.